Time;durP1;ratioP1;P1;durP2;ratioP2;P2;SDS_P1;SDS_P2;PMS_P1;PMS_P2;Temp;Humidity;BMP_temperature;BMP_pressure;BME280_temperature;BME280_humidity;BME280_pressure;Samples;Min_cycle;Max_cycle;Signal;HPM_P1;HPM_P2
2021/06/25 00:02:11;;;;;;;11.63;7.05;;;;;;;19.67;81.51;100328.17;1747137;80;25499;-62
2021/06/25 00:04:38;;;;;;;16.27;7.30;;;;;;;19.63;81.39;100321.86;1707466;81;26144;-62
2021/06/25 00:07:05;;;;;;;13.18;7.37;;;;;;;19.63;81.61;100315.55;1705948;81;25756;-62
2021/06/25 00:09:32;;;;;;;13.75;7.30;;;;;;;19.56;81.81;100312.94;1704483;82;27314;-67
2021/06/25 00:11:58;;;;;;;13.65;7.17;;;;;;;19.51;81.77;100300.09;1709731;82;25885;-66
2021/06/25 00:14:25;;;;;;;10.50;7.33;;;;;;;19.48;81.84;100298.90;1708721;81;25835;-66
2021/06/25 00:16:54;;;;;;;10.48;7.03;;;;;;;19.46;81.91;100286.70;1708860;82;26746;-65
2021/06/25 00:19:20;;;;;;;12.35;7.83;;;;;;;19.43;82.02;100273.72;1712938;81;25743;-64
2021/06/25 00:21:49;;;;;;;11.90;7.70;;;;;;;19.39;82.17;100265.44;1687591;83;27388;-67
2021/06/25 00:24:17;;;;;;;14.07;8.03;;;;;;;19.37;82.40;100268.55;1700594;81;26108;-66
2021/06/25 00:26:43;;;;;;;12.90;8.08;;;;;;;19.36;82.39;100273.06;1704023;81;25937;-66
2021/06/25 00:29:11;;;;;;;11.93;7.83;;;;;;;19.37;82.51;100270.52;1713288;81;26571;-64
2021/06/25 00:31:38;;;;;;;13.35;7.42;;;;;;;19.38;82.61;100262.50;1713539;81;25673;-65
2021/06/25 00:34:04;;;;;;;19.70;7.70;;;;;;;19.37;82.69;100252.09;1715787;82;27390;-65
2021/06/25 00:36:31;;;;;;;13.50;7.72;;;;;;;19.39;82.71;100260.77;1761063;80;26136;-64
2021/06/25 00:38:59;;;;;;;13.15;7.87;;;;;;;19.40;82.77;100254.70;1755387;80;26428;-64
2021/06/25 00:41:26;;;;;;;16.50;8.13;;;;;;;19.41;82.82;100252.17;1748877;80;25742;-65
2021/06/25 00:43:53;;;;;;;12.33;7.72;;;;;;;19.44;83.04;100252.78;1756293;80;25797;-65
2021/06/25 00:46:20;;;;;;;17.37;7.53;;;;;;;19.47;83.07;100252.05;1753002;79;27438;-65
2021/06/25 00:48:47;;;;;;;15.58;8.38;;;;;;;19.48;83.12;100257.76;1761834;80;25805;-66
2021/06/25 00:51:15;;;;;;;12.93;7.37;;;;;;;19.47;82.98;100247.16;1757860;80;26074;-66
2021/06/25 00:53:42;;;;;;;14.20;7.50;;;;;;;19.46;82.92;100251.86;1727984;80;26535;-65
2021/06/25 00:56:12;;;;;;;10.23;6.72;;;;;;;19.49;83.13;100251.68;1764023;80;25883;-65
2021/06/25 00:58:43;;;;;;;14.78;8.15;;;;;;;19.48;83.00;100242.67;1759188;79;27449;-66
2021/06/25 01:01:10;;;;;;;11.15;7.55;;;;;;;19.47;82.91;100234.22;1747083;79;25866;-63
2021/06/25 01:03:37;;;;;;;12.75;7.65;;;;;;;19.47;83.07;100218.35;1748025;79;25746;-66
2021/06/25 01:06:05;;;;;;;14.05;8.30;;;;;;;19.45;82.96;100198.73;1754899;80;26036;-64
2021/06/25 01:08:35;;;;;;;14.15;7.72;;;;;;;19.45;83.19;100189.92;1756508;80;25773;-65
2021/06/25 01:11:00;;;;;;;14.05;8.65;;;;;;;19.46;83.22;100174.25;1756563;80;27621;-65
2021/06/25 01:13:28;;;;;;;12.90;8.20;;;;;;;19.45;83.15;100155.64;1762782;79;25874;-65
2021/06/25 01:15:55;;;;;;;13.08;8.20;;;;;;;19.45;83.31;100133.70;1769182;79;25802;-66
2021/06/25 01:18:22;;;;;;;16.55;8.60;;;;;;;19.46;83.28;100120.77;1761921;80;26354;-66
2021/06/25 01:20:49;;;;;;;14.40;7.67;;;;;;;19.45;83.33;100110.38;1769721;80;25737;-65
2021/06/25 01:23:15;;;;;;;12.93;8.40;;;;;;;19.45;83.23;100101.37;1764276;79;27327;-66
2021/06/25 01:25:43;;;;;;;16.70;8.30;;;;;;;19.42;83.23;100087.81;1747907;80;25883;-64
2021/06/25 01:28:11;;;;;;;11.83;7.40;;;;;;;19.41;83.41;100075.28;1752247;80;25358;-64
2021/06/25 01:30:42;;;;;;;13.50;7.70;;;;;;;19.38;83.43;100053.49;1750033;79;26349;-66
2021/06/25 01:33:12;;;;;;;8.98;6.72;;;;;;;19.41;83.49;100042.38;1764836;80;27016;-66
2021/06/25 01:35:40;;;;;;;9.70;6.65;;;;;;;19.39;83.53;100024.92;1758590;80;27366;-65
2021/06/25 01:38:09;;;;;;;11.20;7.28;;;;;;;19.39;83.58;100000.23;1770974;80;25721;-66
2021/06/25 01:40:38;;;;;;;9.55;7.30;;;;;;;19.36;83.37;99991.38;1766645;80;26833;-66
2021/06/25 01:43:08;;;;;;;12.70;7.00;;;;;;;19.35;83.31;99965.70;1752966;79;25666;-65
2021/06/25 01:45:39;;;;;;;10.88;6.75;;;;;;;19.32;83.36;99953.52;1773571;79;25820;-65
2021/06/25 01:48:08;;;;;;;13.18;6.92;;;;;;;19.29;83.18;99920.59;1768115;79;28255;-63
2021/06/25 01:50:39;;;;;;;7.90;6.75;;;;;;;19.23;83.24;99885.88;1763002;79;25853;-65
2021/06/25 01:53:26;;;;;;;12.93;6.92;;;;;;;19.18;83.42;99856.08;1744179;80;25828;-64
2021/06/25 01:55:54;;;;;;;10.38;6.40;;;;;;;19.13;83.53;99833.90;1757627;79;25845;-64
2021/06/25 01:58:26;;;;;;;12.43;5.97;;;;;;;19.08;83.70;99835.61;1761933;79;26357;-66
2021/06/25 02:01:17;;;;;;;9.65;6.45;;;;;;;19.04;83.82;99861.63;1765564;79;27286;-64
2021/06/25 02:03:48;;;;;;;12.50;5.72;;;;;;;19.01;83.79;99910.33;1777948;79;25902;-63
2021/06/25 02:06:16;;;;;;;11.78;5.70;;;;;;;18.99;83.77;99957.10;1767856;79;25795;-65
2021/06/25 02:08:43;;;;;;;12.58;5.90;;;;;;;18.95;83.72;100002.84;1773737;79;26661;-65
2021/06/25 02:11:14;;;;;;;8.35;6.30;;;;;;;18.92;83.91;100035.91;1754209;79;26438;-65
2021/06/25 02:13:42;;;;;;;10.50;5.53;;;;;;;18.90;84.01;100065.64;1727955;81;27991;-66
2021/06/25 02:16:09;;;;;;;10.35;6.53;;;;;;;18.89;84.34;100088.70;1760351;79;25769;-64
2021/06/25 02:18:36;;;;;;;10.45;6.95;;;;;;;18.86;84.39;100112.73;1769041;79;25684;-64
2021/06/25 02:21:05;;;;;;;10.95;7.33;;;;;;;18.85;84.77;100124.87;1767266;79;25739;-65
2021/06/25 02:23:34;;;;;;;12.37;6.90;;;;;;;18.84;84.80;100126.02;1752751;80;25882;-65
2021/06/25 02:26:01;;;;;;;12.23;6.45;;;;;;;18.84;84.89;100153.42;1767799;79;27860;-65
2021/06/25 02:28:29;;;;;;;12.33;7.20;;;;;;;18.80;84.86;100140.22;1768139;79;25763;-66
2021/06/25 02:30:56;;;;;;;14.70;7.08;;;;;;;18.80;85.05;100137.48;1751116;79;26187;-66
2021/06/25 02:33:26;;;;;;;11.73;7.47;;;;;;;18.81;85.03;100130.83;1757116;79;26184;-64
2021/06/25 02:35:52;;;;;;;;;;;;;;;18.81;85.21;100147.27;1733083;81;25975;-66
2021/06/25 02:38:19;;;;;;;11.90;7.05;;;;;;;18.84;85.50;100152.05;1726259;80;27164;-66
2021/06/25 02:40:48;;;;;;;9.03;7.72;;;;;;;18.83;85.57;100140.30;1733891;80;25786;-67
2021/06/25 02:43:16;;;;;;;13.10;7.92;;;;;;;18.85;85.58;100137.20;1726332;80;25842;-64
2021/06/25 02:45:46;;;;;;;14.58;8.63;;;;;;;18.89;85.72;100132.55;1732497;80;25617;-66
2021/06/25 02:48:13;;;;;;;14.68;8.58;;;;;;;18.93;85.77;100127.90;1729719;80;25913;-64
2021/06/25 02:50:42;;;;;;;12.87;7.77;;;;;;;18.96;85.79;100118.95;1720398;80;25980;-63
2021/06/25 02:55:37;;;;;;;11.10;7.47;;;;;;;19.03;85.81;100112.77;1726042;81;25799;-65
2021/06/25 02:58:04;;;;;;;12.60;8.08;;;;;;;19.06;85.89;100106.56;1717751;81;25615;-64
2021/06/25 03:00:30;;;;;;;21.10;8.20;;;;;;;19.11;86.01;100101.34;1719913;81;25764;-64
2021/06/25 03:02:57;;;;;;;10.50;8.53;;;;;;;19.15;86.16;100100.80;1710719;81;27450;-64
2021/06/25 03:05:24;;;;;;;15.43;8.30;;;;;;;19.20;86.18;100104.58;1715082;80;26523;-64
2021/06/25 03:07:49;;;;;;;14.47;7.60;;;;;;;19.22;85.77;100123.62;1719504;80;25852;-65
2021/06/25 03:10:17;;;;;;;11.97;8.03;;;;;;;19.22;85.55;100132.41;1730030;81;26120;-67
2021/06/25 03:12:43;;;;;;;13.68;7.70;;;;;;;19.21;85.39;100140.44;1733137;80;25732;-65
2021/06/25 03:15:12;;;;;;;15.25;8.58;;;;;;;19.19;85.38;100149.04;1719079;80;27306;-64
2021/06/25 03:17:38;;;;;;;14.15;7.75;;;;;;;19.18;85.47;100154.30;1700958;81;25846;-66
2021/06/25 03:20:09;;;;;;;13.08;8.18;;;;;;;19.17;85.27;100159.59;1732480;80;25729;-65
2021/06/25 03:22:37;;;;;;;12.03;8.05;;;;;;;19.15;85.29;100165.22;1729383;81;25695;-65
2021/06/25 03:25:06;;;;;;;9.68;8.23;;;;;;;19.14;85.40;100170.51;1728470;80;25567;-65
2021/06/25 03:27:33;;;;;;;15.58;8.35;;;;;;;19.12;85.42;100180.47;1696013;82;27384;-65
2021/06/25 03:30:06;;;;;;;15.35;8.55;;;;;;;19.10;85.57;100178.66;1722015;80;25792;-66
2021/06/25 03:32:34;;;;;;;11.15;8.73;;;;;;;19.10;85.79;100174.55;1744193;79;26186;-66
2021/06/25 03:35:03;;;;;;;14.38;9.08;;;;;;;19.11;85.85;100180.84;1737131;80;25704;-66
2021/06/25 03:37:31;;;;;;;14.90;9.05;;;;;;;19.10;85.99;100190.20;1752297;79;25813;-64
2021/06/25 03:39:58;;;;;;;12.98;9.30;;;;;;;19.12;86.31;100193.36;1767783;79;27324;-65
2021/06/25 03:42:25;;;;;;;12.60;8.23;;;;;;;19.15;86.30;100196.16;1764938;80;25798;-63
2021/06/25 03:44:55;;;;;;;11.88;9.30;;;;;;;19.15;86.50;100203.01;1760317;80;26170;-64
2021/06/25 03:47:23;;;;;;;15.80;8.80;;;;;;;19.17;86.60;100215.80;1761246;79;25830;-65
2021/06/25 03:49:53;;;;;;;20.60;9.60;;;;;;;19.17;86.51;100222.64;1722718;80;25833;-64
2021/06/25 03:52:18;;;;;;;13.40;8.73;;;;;;;19.15;86.72;100229.05;1715573;80;28336;-67
2021/06/25 03:54:44;;;;;;;18.25;9.58;;;;;;;19.16;87.07;100229.27;1756439;79;25766;-64
2021/06/25 03:57:11;;;;;;;14.95;8.40;;;;;;;19.20;87.18;100226.00;1760517;79;25680;-65
2021/06/25 03:59:38;;;;;;;11.18;9.20;;;;;;;19.22;87.27;100223.70;1749336;79;25714;-67
2021/06/25 04:02:09;;;;;;;13.22;9.03;;;;;;;19.25;87.26;100225.48;1699657;82;26107;-66
2021/06/25 04:04:37;;;;;;;14.00;9.13;;;;;;;19.24;87.24;100232.93;1755539;79;26070;-68
2021/06/25 04:07:07;;;;;;;19.50;9.73;;;;;;;19.25;87.34;100229.59;1737771;80;25664;-68
2021/06/25 04:09:34;;;;;;;;;;;;;;;19.21;87.39;100226.80;1726892;81;25792;-68
2021/06/25 04:12:03;;;;;;;15.05;9.10;;;;;;;19.20;87.56;100219.73;1702320;81;26579;-68
2021/06/25 04:14:33;;;;;;;17.62;8.33;;;;;;;19.20;87.55;100209.55;1734861;81;25780;-69
2021/06/25 04:17:00;;;;;;;16.15;9.13;;;;;;;19.22;87.61;100199.58;1773262;79;27382;-68
2021/06/25 04:19:27;;;;;;;13.58;8.40;;;;;;;19.24;87.41;100176.72;1772931;79;25799;-67
2021/06/25 04:21:53;;;;;;;11.83;8.65;;;;;;;19.25;87.33;100165.95;1741872;80;26006;-68
2021/06/25 04:24:23;;;;;;;13.13;8.28;;;;;;;19.26;87.18;100148.91;1704701;81;26317;-68
2021/06/25 04:26:53;;;;;;;14.50;8.33;;;;;;;19.27;87.28;100127.19;1691834;82;25768;-67
2021/06/25 04:29:20;;;;;;;11.53;8.45;;;;;;;19.29;87.36;100099.62;1760939;79;27332;-67
2021/06/25 04:31:52;;;;;;;14.63;8.25;;;;;;;19.34;87.42;100094.37;1760790;79;26022;-67
2021/06/25 04:34:17;;;;;;;10.25;7.78;;;;;;;19.38;87.61;100093.26;1751583;79;25766;-67
2021/06/25 04:36:46;;;;;;;19.12;7.95;;;;;;;19.40;87.35;100086.81;1765534;79;25771;-68
2021/06/25 04:39:12;;;;;;;14.40;8.60;;;;;;;19.42;87.19;100065.88;1674508;84;25755;-68
2021/06/25 04:41:39;;;;;;;12.98;8.25;;;;;;;19.43;87.12;100044.72;1630734;86;26847;-69
2021/06/25 04:44:06;;;;;;;11.05;7.70;;;;;;;19.45;87.17;100030.84;1606520;87;25849;-68
2021/06/25 04:46:34;;;;;;;16.15;8.15;;;;;;;19.49;87.30;100028.92;1592162;87;26013;-66
2021/06/25 04:49:01;;;;;;;14.40;8.33;;;;;;;19.54;87.51;100043.66;1663577;83;25870;-66
2021/06/25 04:51:28;;;;;;;11.28;8.08;;;;;;;19.61;87.50;100067.64;1665080;84;25819;-67
2021/06/25 04:53:55;;;;;;;12.53;8.30;;;;;;;19.66;87.32;100064.56;1657083;84;27887;-67
2021/06/25 04:56:22;;;;;;;16.32;7.75;;;;;;;19.72;87.42;100060.91;1645636;84;25967;-67
2021/06/25 04:58:49;;;;;;;11.12;7.92;;;;;;;19.74;86.97;100071.73;1634082;85;25749;-68
2021/06/25 05:01:18;;;;;;;13.25;8.10;;;;;;;19.73;86.73;100060.54;1659810;83;26889;-67
2021/06/25 05:03:45;;;;;;;13.23;8.07;;;;;;;19.78;86.93;100051.19;1664676;83;25925;-67
2021/06/25 05:06:12;;;;;;;10.23;7.33;;;;;;;19.83;87.09;100033.59;1653173;84;27426;-68
2021/06/25 05:08:39;;;;;;;13.98;7.90;;;;;;;19.88;87.17;100024.42;1660680;84;25825;-68
2021/06/25 05:11:09;;;;;;;13.55;8.23;;;;;;;19.93;87.02;100021.92;1657254;84;25994;-68
2021/06/25 05:13:36;;;;;;;10.68;7.37;;;;;;;20.02;87.35;100031.21;1670365;84;26644;-68
2021/06/25 05:16:03;;;;;;;13.35;7.37;;;;;;;20.08;87.00;100037.34;1662754;85;25891;-67
2021/06/25 05:18:30;;;;;;;13.55;8.00;;;;;;;20.12;86.25;100035.41;1661644;84;27311;-68
2021/06/25 05:20:57;;;;;;;11.50;7.53;;;;;;;20.15;86.54;100045.64;1660814;84;25850;-67
2021/06/25 05:23:24;;;;;;;9.35;6.78;;;;;;;20.23;86.27;100074.55;1662114;84;25857;-69
2021/06/25 05:25:51;;;;;;;10.53;7.83;;;;;;;20.26;86.14;100102.59;1650814;84;26243;-66
2021/06/25 05:28:20;;;;;;;13.70;8.15;;;;;;;20.30;85.66;100125.41;1631405;85;25834;-67
2021/06/25 05:30:48;;;;;;;11.73;7.70;;;;;;;20.30;85.64;100134.42;1621987;87;27502;-68
2021/06/25 05:33:19;;;;;;;13.45;7.75;;;;;;;20.32;85.60;100133.45;1623957;85;25856;-69
2021/06/25 05:35:48;;;;;;;11.80;8.25;;;;;;;20.33;85.51;100133.67;1653300;85;25879;-68
2021/06/25 05:38:17;;;;;;;13.57;9.53;;;;;;;20.36;85.40;100139.56;1665463;84;25845;-70
2021/06/25 05:40:47;;;;;;;10.38;8.68;;;;;;;20.33;85.05;100150.15;1642887;85;25794;-70
2021/06/25 05:43:15;;;;;;;14.53;9.60;;;;;;;20.28;84.78;100155.21;1671887;82;27921;-68
2021/06/25 05:45:45;;;;;;;11.30;9.10;;;;;;;20.24;84.75;100148.87;1740847;80;27669;-69
2021/06/25 05:48:11;;;;;;;13.68;9.63;;;;;;;20.23;84.93;100154.19;1696314;82;25802;-70
2021/06/25 05:50:41;;;;;;;12.78;9.03;;;;;;;20.22;85.08;100156.71;1729678;81;25767;-69
2021/06/25 05:53:11;;;;;;;9.70;8.70;;;;;;;20.22;85.13;100148.47;1743589;81;25733;-68
2021/06/25 05:55:38;;;;;;;10.40;8.48;;;;;;;20.21;85.03;100153.75;1735148;80;27653;-68
2021/06/25 05:58:05;;;;;;;15.13;10.32;;;;;;;20.19;85.14;100156.87;1740174;80;25801;-71
2021/06/25 06:00:32;;;;;;;10.28;9.13;;;;;;;20.14;84.85;100153.91;1743515;80;25672;-72
2021/06/25 06:02:59;;;;;;;13.58;10.85;;;;;;;20.11;84.96;100160.14;1724170;81;25762;-70
2021/06/25 06:05:33;;;;;;;11.33;9.23;;;;;;;20.10;85.06;100152.28;1727863;81;25368;-68
2021/06/25 06:07:54;;;;;;;13.78;8.73;;;;;;;20.13;85.63;100157.02;1717434;82;33326;-70
2021/06/25 06:10:21;;;;;;;14.38;9.95;;;;;;;20.19;85.39;100149.22;1715956;81;25874;-72
2021/06/25 06:12:48;;;;;;;13.53;9.35;;;;;;;20.20;85.18;100155.71;1724309;81;25697;-74
2021/06/25 06:15:17;;;;;;;14.20;9.35;;;;;;;20.20;85.15;100150.81;1706780;81;25777;-75
2021/06/25 06:17:49;;;;;;;14.20;8.98;;;;;;;20.25;85.44;100151.84;1734518;80;25896;-72
2021/06/25 06:20:19;;;;;;;12.85;9.83;;;;;;;20.29;85.31;100142.45;1712362;82;27477;-73
2021/06/25 06:31:15;;;;;;;18.67;12.05;;;;;;;20.64;86.26;100152.80;1748615;80;25727;-70
2021/06/25 06:36:26;;;;;;;23.00;12.25;;;;;;;20.75;85.01;100150.89;1676811;83;25793;-71
2021/06/25 06:38:50;;;;;;;16.20;12.98;;;;;;;20.82;85.20;100159.78;1679325;82;25857;-70
2021/06/25 06:41:17;;;;;;;22.07;13.30;;;;;;;20.87;85.07;100158.86;1702103;82;25702;-65
2021/06/25 06:43:46;;;;;;;22.20;14.50;;;;;;;20.96;85.08;100165.95;1736993;81;25785;-66
2021/06/25 06:46:17;;;;;;;38.65;21.52;;;;;;;21.02;85.08;100164.44;1772993;80;27935;-66
2021/06/25 06:48:47;;;;;;;38.28;22.20;;;;;;;21.08;84.55;100165.07;1761408;80;25704;-67
2021/06/25 06:51:16;;;;;;;39.83;23.45;;;;;;;21.13;84.54;100172.74;1721713;81;25464;-65
2021/06/25 06:53:45;;;;;;;37.28;23.67;;;;;;;21.22;85.04;100176.73;1708605;82;26285;-65
2021/06/25 06:56:15;;;;;;;44.73;23.73;;;;;;;21.39;85.12;100171.12;1749510;81;25710;-71
2021/06/25 06:58:43;;;;;;;35.23;25.55;;;;;;;21.53;85.37;100182.81;1730005;81;27985;-64
2021/06/25 07:01:10;;;;;;;36.23;25.50;;;;;;;21.67;84.57;100193.69;1723479;81;25682;-69
2021/06/25 07:03:37;;;;;;;35.92;25.62;;;;;;;21.69;83.58;100187.20;1724080;82;25748;-71
2021/06/25 07:06:05;;;;;;;37.00;24.65;;;;;;;21.70;83.23;100184.06;1727990;82;26268;-68
2021/06/25 07:08:33;;;;;;;36.45;25.65;;;;;;;21.73;82.83;100181.92;1714391;82;25849;-64
2021/06/25 07:11:01;;;;;;;49.98;30.52;;;;;;;21.76;82.84;100175.64;1754866;80;27456;-64
2021/06/25 07:13:28;;;;;;;42.90;26.57;;;;;;;21.81;82.72;100185.47;1736383;82;25733;-64
2021/06/25 07:15:56;;;;;;;39.35;26.42;;;;;;;21.86;82.85;100187.06;1772937;77;70455;-69
2021/06/25 07:18:25;;;;;;;37.38;26.55;;;;;;;21.91;82.46;100186.09;1779996;79;25934;-68
2021/06/25 07:20:52;;;;;;;39.08;26.33;;;;;;;21.94;82.00;100192.20;1768386;78;26303;-69
2021/06/25 07:23:20;;;;;;;39.20;27.48;;;;;;;22.02;82.76;100190.27;1778990;77;27886;-70
2021/06/25 07:25:46;;;;;;;46.42;28.62;;;;;;;22.11;82.31;100192.05;1783848;77;26209;-68
2021/06/25 07:28:14;;;;;;;42.58;29.05;;;;;;;22.16;81.93;100195.02;1760207;78;25874;-69
2021/06/25 07:30:41;;;;;;;38.40;29.27;;;;;;;22.25;81.98;100187.16;1765167;78;26227;-68
2021/06/25 07:33:08;;;;;;;38.50;28.35;;;;;;;22.35;81.63;100184.26;1779960;78;25831;-68
2021/06/25 07:35:34;;;;;;;38.58;26.85;;;;;;;22.46;81.55;100180.93;1771206;77;27539;-67
2021/06/25 07:38:01;;;;;;;41.28;29.80;;;;;;;22.55;81.25;100174.42;1777950;76;25897;-67
2021/06/25 07:40:27;;;;;;;43.15;31.33;;;;;;;22.69;81.51;100177.77;1768850;78;25678;-66
2021/06/25 07:42:54;;;;;;;40.20;31.65;;;;;;;22.84;81.02;100178.55;1787665;78;26365;-67
2021/06/25 07:45:22;;;;;;;44.35;31.80;;;;;;;23.01;80.65;100187.20;1771719;78;25541;-70
2021/06/25 07:47:48;;;;;;;42.85;32.93;;;;;;;23.09;79.88;100186.83;1780511;77;27319;-71
2021/06/25 07:50:18;;;;;;;43.65;31.70;;;;;;;23.12;79.35;100187.42;1779027;78;26481;-71
2021/06/25 07:52:47;;;;;;;39.63;29.75;;;;;;;23.18;79.21;100188.39;1773408;78;25922;-70
2021/06/25 07:55:16;;;;;;;40.12;29.15;;;;;;;23.28;79.02;100181.45;1780771;77;26563;-71
2021/06/25 07:57:43;;;;;;;42.40;29.93;;;;;;;23.35;78.95;100183.41;1785781;77;25830;-70
2021/06/25 08:00:13;;;;;;;35.60;27.55;;;;;;;23.44;78.39;100192.05;1779901;78;27296;-70
2021/06/25 08:02:41;;;;;;;37.45;27.25;;;;;;;23.49;78.48;100186.71;1762452;77;25805;-70
2021/06/25 08:05:09;;;;;;;46.37;31.35;;;;;;;23.60;78.89;100184.70;1755633;77;25766;-72
2021/06/25 08:07:36;;;;;;;39.10;31.87;;;;;;;23.64;77.91;100183.31;1727667;81;25817;-70
2021/06/25 08:10:06;;;;;;;42.38;29.87;;;;;;;23.75;77.86;100192.92;1760742;78;25791;-71
2021/06/25 08:12:32;;;;;;;38.75;31.62;;;;;;;23.85;77.84;100187.39;1718806;81;27438;-72
2021/06/25 08:14:59;;;;;;;39.20;31.17;;;;;;;23.92;76.80;100196.21;1713841;80;25728;-68
2021/06/25 08:17:26;;;;;;;44.05;32.17;;;;;;;23.86;76.10;100198.61;1700476;80;25801;-69
2021/06/25 08:19:54;;;;;;;40.52;30.30;;;;;;;23.92;76.33;100187.92;1761690;78;25874;-69
2021/06/25 08:22:21;;;;;;;40.33;28.65;;;;;;;24.02;76.38;100191.25;1721254;80;26506;-68
2021/06/25 08:24:50;;;;;;;40.63;28.95;;;;;;;24.16;77.11;100193.14;1755824;80;28036;-69
2021/06/25 08:27:16;;;;;;;41.65;30.17;;;;;;;24.42;77.20;100186.84;1743816;79;25903;-69
2021/06/25 08:29:45;;;;;;;39.88;29.07;;;;;;;24.67;77.25;100188.06;1714821;81;26645;-69
2021/06/25 08:32:11;;;;;;;42.77;31.00;;;;;;;24.94;76.63;100192.94;1775677;78;25871;-69
2021/06/25 08:34:37;;;;;;;39.35;30.77;;;;;;;25.10;75.48;100185.49;1718810;79;25732;-68
2021/06/25 08:37:04;;;;;;;39.40;29.25;;;;;;;25.24;74.83;100189.48;1759797;78;27311;-68
2021/06/25 08:39:31;;;;;;;34.60;27.48;;;;;;;25.32;73.84;100190.23;1727018;80;25908;-68
2021/06/25 08:42:04;;;;;;;38.28;28.90;;;;;;;25.48;73.45;100178.56;1753375;78;25849;-67
2021/06/25 08:44:37;;;;;;;36.08;26.93;;;;;;;25.61;72.09;100180.98;1766917;77;25851;-67
2021/06/25 08:47:06;;;;;;;37.93;28.55;;;;;;;25.51;71.76;100181.29;1770185;78;25945;-67
2021/06/25 08:49:37;;;;;;;40.33;31.52;;;;;;;25.49;71.47;100183.69;1770019;77;27421;-67
2021/06/25 08:52:05;;;;;;;38.33;30.75;;;;;;;25.46;70.78;100183.73;1760943;78;25914;-66
2021/06/25 08:54:34;;;;;;;38.42;32.10;;;;;;;25.42;71.09;100183.78;1698183;81;25749;-67
2021/06/25 08:57:03;;;;;;;39.73;28.10;;;;;;;25.75;71.95;100180.62;1739810;80;25704;-66
2021/06/25 08:59:28;;;;;;;41.48;30.68;;;;;;;26.21;71.98;100175.83;1783967;77;25876;-66
2021/06/25 09:01:58;;;;;;;40.48;27.77;;;;;;;26.73;71.67;100180.77;1771238;77;28050;-66
2021/06/25 09:04:33;;;;;;;;;;;;;;;26.95;69.90;100182.56;1767536;79;25968;-66
2021/06/25 09:07:01;;;;;;;32.83;24.85;;;;;;;27.03;68.60;100191.72;1758482;78;25719;-67
2021/06/25 09:09:47;;;;;;;37.50;27.32;;;;;;;27.04;68.38;100178.64;1781658;77;25903;-69
2021/06/25 09:12:22;;;;;;;43.42;27.52;;;;;;;27.08;67.81;100182.73;1781714;77;26335;-68
2021/06/25 09:15:05;;;;;;;38.98;27.45;;;;;;;27.13;67.20;100181.63;1776072;78;27984;-68
2021/06/25 09:17:35;;;;;;;43.35;28.55;;;;;;;27.27;67.06;100190.28;1771753;78;27176;-67
2021/06/25 09:20:05;;;;;;;41.53;29.82;;;;;;;27.37;66.36;100194.88;1762307;78;25856;-68
2021/06/25 09:22:36;;;;;;;37.17;29.40;;;;;;;27.56;66.81;100189.75;1748033;78;25924;-68
2021/06/25 09:25:07;;;;;;;37.20;27.37;;;;;;;27.77;65.44;100189.92;1753348;79;26212;-67
2021/06/25 09:27:35;;;;;;;41.20;28.90;;;;;;;27.97;65.28;100184.95;1758612;78;29578;-67
2021/06/25 09:30:14;;;;;;;39.18;30.25;;;;;;;28.20;64.26;100186.82;1774620;77;26674;-67
2021/06/25 09:32:42;;;;;;;38.92;30.12;;;;;;;28.40;63.94;100188.92;1734825;80;25723;-66
2021/06/25 09:35:16;;;;;;;37.00;29.07;;;;;;;28.61;63.65;100182.06;1778591;77;25869;-66
2021/06/25 09:37:46;;;;;;;32.17;25.10;;;;;;;28.80;63.23;100180.38;1760720;78;25946;-67
2021/06/25 09:40:17;;;;;;;35.48;27.15;;;;;;;28.99;63.14;100176.52;1781622;78;27284;-66
2021/06/25 09:43:09;;;;;;;33.98;26.00;;;;;;;29.15;62.11;100172.90;1750702;78;25909;-65
2021/06/25 09:45:36;;;;;;;33.88;26.33;;;;;;;29.23;61.24;100165.95;1772798;78;25792;-65
2021/06/25 09:48:04;;;;;;;29.90;23.10;;;;;;;29.06;59.20;100160.42;1760280;78;26521;-65
2021/06/25 09:50:33;;;;;;;31.75;25.72;;;;;;;28.85;59.62;100169.34;1754422;78;25830;-66
2021/06/25 09:53:04;;;;;;;29.70;24.02;;;;;;;28.82;59.50;100171.60;1764420;78;27337;-67
2021/06/25 10:01:22;;;;;;;22.67;19.98;;;;;;;29.08;59.31;100160.58;1758274;78;26491;-66
2021/06/25 10:03:59;;;;;;;23.95;19.95;;;;;;;29.33;59.14;100164.86;1765412;77;25855;-67
2021/06/25 10:06:30;;;;;;;24.82;20.02;;;;;;;29.36;58.29;100166.00;1754629;78;27316;-66
2021/06/25 10:08:57;;;;;;;24.70;20.72;;;;;;;29.33;57.70;100156.51;1749868;79;25915;-65
2021/06/25 10:11:31;;;;;;;27.13;22.87;;;;;;;29.23;57.36;100161.77;1763159;78;25768;-67
2021/06/25 10:14:01;;;;;;;24.00;21.17;;;;;;;29.11;56.79;100153.52;1742975;80;25838;-66
2021/06/25 10:16:28;;;;;;;30.48;27.20;;;;;;;29.03;56.81;100152.14;1714937;80;25805;-67
2021/06/25 10:18:58;;;;;;;33.75;26.02;;;;;;;28.96;56.92;100157.91;1736309;80;27381;-67
2021/06/25 10:21:29;;;;;;;30.12;26.57;;;;;;;28.93;57.40;100148.45;1725060;79;26184;-67
2021/06/25 10:24:00;;;;;;;34.05;26.37;;;;;;;29.01;57.95;100153.20;1728317;80;25696;-67
2021/06/25 10:26:27;;;;;;;29.65;26.35;;;;;;;29.06;57.79;100142.91;1729990;80;26263;-67
2021/06/25 10:28:55;;;;;;;27.82;24.43;;;;;;;29.12;57.69;100150.91;1736239;80;25952;-67
2021/06/25 10:31:25;;;;;;;32.78;25.95;;;;;;;29.21;57.50;100162.83;1726982;81;27321;-67
2021/06/25 10:33:54;;;;;;;33.67;25.77;;;;;;;29.24;57.16;100166.13;1736991;80;25881;-67
2021/06/25 10:36:30;;;;;;;29.15;24.05;;;;;;;29.22;56.16;100160.23;1734639;80;26046;-67
2021/06/25 10:39:09;;;;;;;29.18;24.47;;;;;;;29.01;56.29;100157.38;1737261;80;25887;-66
2021/06/25 10:41:57;;;;;;;26.57;22.67;;;;;;;28.86;56.12;100160.55;1767076;78;25831;-66
2021/06/25 10:44:56;;;;;;;32.63;23.32;;;;;;;28.71;56.62;100156.59;1773908;77;27926;-65
2021/06/25 10:47:29;;;;;;;29.63;24.30;;;;;;;28.62;56.54;100160.58;1707578;82;25745;-67
2021/06/25 10:50:14;;;;;;;26.55;23.45;;;;;;;28.46;56.53;100152.39;1750540;78;25938;-68
2021/06/25 10:52:45;;;;;;;31.73;26.12;;;;;;;28.36;56.75;100159.00;1740688;80;26212;-68
2021/06/25 10:55:18;;;;;;;34.73;24.63;;;;;;;28.24;56.88;100163.88;1741369;78;26650;-67
2021/06/25 10:57:56;;;;;;;25.45;22.00;;;;;;;28.15;56.88;100160.31;1739388;80;27502;-67
2021/06/25 11:00:45;;;;;;;21.25;19.05;;;;;;;28.08;57.54;100164.03;1764052;79;25809;-67
2021/06/25 11:03:36;;;;;;;21.87;17.85;;;;;;;28.10;58.14;100167.78;1739434;79;25843;-67
2021/06/25 11:06:09;;;;;;;23.38;16.73;;;;;;;28.18;58.02;100166.40;1763624;78;25877;-67
2021/06/25 11:08:57;;;;;;;21.60;16.82;;;;;;;28.28;58.20;100168.73;1758306;78;25884;-66
2021/06/25 11:11:26;;;;;;;19.32;15.80;;;;;;;28.58;57.59;100166.86;1754887;78;27327;-68
2021/06/25 11:13:53;;;;;;;21.68;16.35;;;;;;;28.71;57.42;100153.00;1754557;79;26417;-69
2021/06/25 11:16:21;;;;;;;19.82;17.35;;;;;;;28.98;57.60;100152.68;1776351;78;25719;-67
2021/06/25 11:18:48;;;;;;;21.55;15.55;;;;;;;29.26;57.02;100157.34;1767000;78;26234;-65
2021/06/25 11:21:15;;;;;;;23.67;17.40;;;;;;;29.48;56.67;100154.72;1740677;78;25860;-69
2021/06/25 11:23:45;;;;;;;20.70;16.00;;;;;;;29.64;55.67;100156.01;1757473;78;27357;-68
2021/06/25 11:26:23;;;;;;;23.83;16.75;;;;;;;29.93;55.76;100154.58;1757068;78;25827;-66
2021/06/25 11:28:54;;;;;;;19.10;15.83;;;;;;;30.31;54.92;100152.36;1771186;78;26548;-65
2021/06/25 11:31:25;;;;;;;24.80;16.37;;;;;;;30.58;54.74;100144.14;1755065;78;26255;-65
2021/06/25 11:34:03;;;;;;;16.87;15.05;;;;;;;30.63;53.83;100144.96;1757237;78;25721;-65
2021/06/25 11:36:53;;;;;;;24.00;16.52;;;;;;;30.54;53.21;100140.05;1761386;78;34178;-66
2021/06/25 11:39:35;;;;;;;18.67;15.30;;;;;;;30.58;53.11;100146.13;1768392;78;25781;-67
2021/06/25 11:42:14;;;;;;;19.35;14.38;;;;;;;30.68;52.91;100145.78;1765873;78;25771;-65
2021/06/25 11:44:50;;;;;;;16.50;14.45;;;;;;;30.64;52.46;100138.76;1749260;78;25869;-65